createdAt,value
2023-03-05T00:01:33.152Z,2.70
2023-03-05T00:04:01.712Z,2.70
2023-03-05T00:06:31.573Z,2.70
2023-03-05T00:09:00.295Z,2.70
2023-03-05T00:11:31.575Z,2.70
2023-03-05T00:14:00.680Z,2.70
2023-03-05T00:16:30.150Z,2.60
2023-03-05T00:18:59.729Z,2.60
2023-03-05T00:21:29.887Z,2.70
2023-03-05T00:24:00.873Z,2.60
2023-03-05T00:26:31.192Z,2.60
2023-03-05T00:28:59.472Z,2.60
2023-03-05T00:31:30.985Z,2.60
2023-03-05T00:34:01.019Z,2.60
2023-03-05T00:36:29.442Z,2.60
2023-03-05T00:38:57.544Z,2.60
2023-03-05T00:41:31.930Z,2.60
2023-03-05T00:43:59.855Z,2.60
2023-03-05T00:46:27.944Z,2.60
2023-03-05T00:48:55.887Z,2.60
2023-03-05T00:51:24.090Z,2.60
2023-03-05T00:53:52.175Z,2.60
2023-03-05T00:56:20.087Z,2.50
2023-03-05T00:58:49.379Z,2.60
2023-03-05T01:01:17.548Z,2.60
2023-03-05T01:03:45.598Z,3.50
2023-03-05T01:06:15.022Z,3.10
2023-03-05T01:08:43.520Z,2.50
2023-03-05T01:11:12.458Z,2.50
2023-03-05T01:13:40.420Z,2.50
2023-03-05T01:16:10.378Z,2.50
2023-03-05T01:18:39.045Z,2.50
2023-03-05T01:21:07.465Z,2.60
2023-03-05T01:23:37.304Z,2.40
2023-03-05T01:26:05.663Z,2.40
2023-03-05T01:28:33.614Z,2.40
2023-03-05T01:31:01.579Z,2.40
2023-03-05T01:33:30.819Z,2.30
2023-03-05T01:35:58.721Z,2.30
2023-03-05T01:38:26.629Z,2.30
2023-03-05T01:40:54.583Z,2.30
2023-03-05T01:43:26.011Z,2.30
2023-03-05T01:46:27.654Z,2.30
2023-03-05T01:49:02.879Z,2.30
2023-03-05T01:51:35.644Z,3.90
2023-03-05T01:54:07.138Z,2.30
2023-03-05T01:56:35.408Z,2.30
2023-03-05T01:59:04.518Z,2.30
2023-03-05T02:01:36.475Z,2.40
2023-03-05T02:04:06.388Z,2.40
2023-03-05T02:06:35.532Z,2.40
2023-03-05T02:09:03.437Z,2.40
2023-03-05T02:11:31.433Z,2.40
2023-03-05T02:13:59.677Z,2.40
2023-03-05T02:16:29.128Z,2.40
2023-03-05T02:18:57.810Z,2.40
2023-03-05T02:21:37.523Z,3.00
2023-03-05T02:24:06.088Z,2.40
2023-03-05T02:26:34.226Z,2.40
2023-03-05T02:29:03.983Z,2.40
2023-03-05T02:31:32.029Z,2.40
2023-03-05T02:33:59.918Z,2.40
2023-03-05T02:36:27.868Z,2.40
2023-03-05T02:38:59.288Z,2.40
2023-03-05T02:41:27.482Z,2.70
2023-03-05T02:43:55.513Z,2.40
2023-03-05T02:46:24.001Z,2.80
2023-03-05T02:48:52.108Z,2.40
2023-03-05T02:51:20.103Z,3.00
2023-03-05T02:53:48.072Z,2.40
2023-03-05T02:56:17.317Z,2.40
2023-03-05T02:58:45.240Z,2.40
2023-03-05T03:01:13.131Z,2.40
2023-03-05T03:03:41.085Z,2.40
2023-03-05T03:06:09.251Z,2.40
2023-03-05T03:08:37.166Z,3.90
2023-03-05T03:11:09.595Z,2.40
2023-03-05T03:13:39.192Z,2.40
2023-03-05T03:16:09.570Z,2.40
2023-03-05T03:18:37.677Z,2.40
2023-03-05T03:21:06.828Z,2.40
2023-03-05T03:23:35.302Z,2.50
2023-03-05T03:26:03.235Z,2.40
2023-03-05T03:28:31.117Z,2.40
2023-03-05T03:31:00.345Z,2.50
2023-03-05T03:33:28.193Z,3.60
2023-03-05T03:35:56.158Z,2.40
2023-03-05T03:38:24.122Z,2.40
2023-03-05T03:40:52.072Z,2.40
2023-03-05T03:43:19.957Z,2.40
2023-03-05T03:45:47.891Z,2.40
2023-03-05T03:48:17.243Z,2.40
2023-03-05T03:50:45.410Z,2.40
2023-03-05T03:53:14.367Z,2.40
2023-03-05T03:55:43.915Z,2.40
2023-03-05T03:58:12.066Z,2.40
2023-03-05T04:00:41.595Z,2.40
2023-03-05T04:03:09.641Z,2.40
2023-03-05T04:05:38.870Z,2.40
2023-03-05T04:08:11.869Z,2.40
2023-03-05T04:10:40.258Z,2.70
2023-03-05T04:13:08.451Z,2.40
2023-03-05T04:15:36.660Z,2.40
2023-03-05T04:18:04.737Z,2.40
2023-03-05T04:20:32.668Z,2.30
2023-03-05T04:23:02.029Z,3.40
2023-03-05T04:25:29.943Z,2.30
2023-03-05T04:27:57.827Z,2.20
2023-03-05T04:30:25.851Z,2.20
2023-03-05T04:32:53.766Z,2.20
2023-03-05T04:35:21.726Z,2.20
2023-03-05T04:37:49.931Z,2.30
2023-03-05T04:40:20.865Z,2.20
2023-03-05T04:42:48.842Z,2.20
2023-03-05T04:45:17.203Z,2.20
2023-03-05T04:47:45.230Z,2.20
2023-03-05T04:50:14.008Z,2.20
2023-03-05T04:52:42.963Z,2.30
2023-03-05T04:55:12.636Z,2.30
2023-03-05T04:57:41.920Z,2.30
2023-03-05T05:00:14.286Z,3.40
2023-03-05T05:02:42.578Z,2.30
2023-03-05T05:05:11.660Z,2.40
2023-03-05T05:07:39.558Z,2.30
2023-03-05T05:10:08.974Z,2.30
2023-03-05T05:12:37.039Z,2.40
2023-03-05T05:15:08.375Z,2.40
2023-03-05T05:17:37.011Z,2.40
2023-03-05T05:20:06.474Z,2.30
2023-03-05T05:22:34.589Z,2.40
2023-03-05T05:25:02.665Z,2.30
2023-03-05T05:27:30.585Z,2.40
2023-03-05T05:29:58.529Z,2.40
2023-03-05T05:32:27.829Z,2.30
2023-03-05T05:34:56.666Z,2.40
2023-03-05T05:37:25.098Z,2.40
2023-03-05T05:39:53.169Z,2.40
2023-03-05T05:42:23.281Z,2.40
2023-03-05T05:44:51.318Z,2.40
2023-03-05T05:47:19.861Z,3.50
2023-03-05T05:49:49.118Z,2.40
2023-03-05T05:52:17.048Z,2.40
2023-03-05T05:54:44.872Z,2.40
2023-03-05T05:57:12.742Z,2.40
2023-03-05T05:59:40.976Z,2.40
2023-03-05T06:02:08.978Z,2.40
2023-03-05T06:04:37.221Z,2.40
2023-03-05T06:07:06.756Z,2.40
2023-03-05T06:09:36.551Z,2.40
2023-03-05T06:12:04.910Z,2.40
2023-03-05T06:14:32.765Z,2.40
2023-03-05T06:17:00.634Z,2.40
2023-03-05T06:19:28.547Z,2.40
2023-03-05T06:21:56.572Z,2.40
2023-03-05T06:24:25.815Z,2.40
2023-03-05T06:26:53.699Z,2.40
2023-03-05T06:29:21.564Z,2.40
2023-03-05T06:32:05.892Z,2.40
2023-03-05T06:34:33.777Z,2.40
2023-03-05T06:37:01.627Z,2.40
2023-03-05T06:39:31.462Z,2.40
2023-03-05T06:41:59.367Z,2.30
2023-03-05T06:44:27.378Z,2.30
2023-03-05T06:46:55.265Z,2.30
2023-03-05T06:49:23.178Z,2.30
2023-03-05T06:51:51.127Z,2.40
2023-03-05T06:54:19.929Z,2.40
2023-03-05T06:56:49.432Z,2.40
2023-03-05T06:59:18.545Z,2.40
2023-03-05T07:01:46.864Z,2.40
2023-03-05T07:04:15.198Z,2.40
2023-03-05T07:06:43.734Z,2.50
2023-03-05T07:09:15.085Z,2.50
2023-03-05T07:11:43.098Z,2.50
2023-03-05T07:14:12.366Z,2.50
2023-03-05T07:16:40.451Z,2.60
2023-03-05T07:19:10.747Z,2.60
2023-03-05T07:21:40.039Z,2.70
2023-03-05T07:24:09.196Z,2.70
2023-03-05T07:26:37.218Z,3.80
2023-03-05T07:29:05.633Z,2.90
2023-03-05T07:31:34.936Z,2.80
2023-03-05T07:34:03.750Z,2.80
2023-03-05T07:36:31.958Z,3.90
2023-03-05T07:38:59.898Z,2.90
2023-03-05T07:41:27.868Z,3.80
2023-03-05T07:43:56.384Z,3.10
2023-03-05T07:46:26.990Z,3.00
2023-03-05T07:48:56.835Z,3.10
2023-03-05T07:51:26.653Z,3.10
2023-03-05T07:53:57.422Z,3.10
2023-03-05T07:56:26.370Z,3.20
2023-03-05T07:58:54.399Z,3.20
2023-03-05T08:01:22.434Z,3.20
2023-03-05T08:03:50.442Z,3.20
2023-03-05T08:06:19.745Z,3.30
2023-03-05T08:08:47.797Z,3.30
2023-03-05T08:11:17.260Z,3.40
2023-03-05T08:13:45.845Z,3.40
2023-03-05T08:16:16.128Z,3.50
2023-03-05T08:18:44.469Z,4.20
2023-03-05T08:21:19.767Z,3.70
2023-03-05T08:23:47.770Z,3.90
2023-03-05T08:26:17.104Z,3.90
2023-03-05T08:28:45.278Z,4.00
2023-03-05T08:31:14.428Z,4.10
2023-03-05T08:33:42.789Z,4.90
2023-03-05T08:36:11.242Z,5.40
2023-03-05T08:38:40.638Z,4.20
2023-03-05T08:41:08.654Z,4.30
2023-03-05T08:43:36.552Z,4.40
2023-03-05T08:46:04.757Z,4.40
2023-03-05T08:48:33.581Z,5.80
2023-03-05T08:51:06.860Z,4.40
2023-03-05T08:53:34.756Z,5.90
2023-03-05T08:56:04.229Z,4.30
2023-03-05T08:58:32.376Z,4.30
2023-03-05T09:01:00.568Z,5.10
2023-03-05T09:03:28.605Z,4.30
2023-03-05T09:06:00.992Z,4.40
2023-03-05T09:08:29.970Z,6.40
2023-03-05T09:10:57.989Z,4.70
2023-03-05T09:13:27.393Z,4.80
2023-03-05T09:15:56.053Z,4.90
2023-03-05T09:18:24.211Z,4.90
2023-03-05T09:20:52.180Z,5.00
2023-03-05T09:23:20.417Z,5.10
2023-03-05T09:25:49.389Z,5.10
2023-03-05T09:28:17.474Z,7.10
2023-03-05T09:30:46.698Z,5.20
2023-03-05T09:33:14.767Z,5.60
2023-03-05T09:35:42.782Z,5.50
2023-03-05T09:38:10.663Z,5.70
2023-03-05T09:40:44.796Z,5.80
2023-03-05T09:43:26.821Z,7.50
2023-03-05T09:46:15.922Z,7.40
2023-03-05T09:48:52.472Z,6.00
2023-03-05T09:51:25.693Z,6.80
2023-03-05T09:54:03.051Z,7.70
2023-03-05T09:56:33.161Z,6.10
2023-03-05T09:59:05.004Z,7.40
2023-03-05T10:01:39.822Z,6.10
2023-03-05T10:04:12.387Z,6.20
2023-03-05T10:06:49.884Z,8.00
2023-03-05T10:09:24.658Z,6.30
2023-03-05T10:11:58.248Z,7.50
2023-03-05T10:14:29.359Z,6.50
2023-03-05T10:17:43.072Z,6.60
2023-03-05T10:20:54.971Z,6.70
2023-03-05T10:23:55.951Z,6.80
2023-03-05T10:26:41.654Z,6.80
2023-03-05T10:29:23.147Z,6.90
2023-03-05T10:31:59.755Z,7.50
2023-03-05T10:35:03.341Z,8.20
2023-03-05T10:38:07.282Z,6.90
2023-03-05T10:40:41.004Z,6.90
2023-03-05T10:43:20.561Z,7.10
2023-03-05T10:45:50.999Z,7.20
2023-03-05T10:48:29.318Z,7.60
2023-03-05T10:51:04.165Z,8.20
2023-03-05T10:53:35.077Z,7.30
2023-03-05T10:56:04.445Z,7.20
2023-03-05T10:58:32.761Z,8.00
2023-03-05T11:01:04.080Z,6.90
2023-03-05T11:03:51.837Z,7.60
2023-03-05T11:06:34.501Z,7.20
2023-03-05T11:09:18.654Z,7.40
2023-03-05T11:11:46.576Z,7.50
2023-03-05T11:14:30.877Z,7.80
2023-03-05T11:16:59.097Z,7.40
2023-03-05T11:19:31.645Z,7.50
2023-03-05T11:22:15.773Z,8.20
2023-03-05T11:24:46.537Z,7.50
2023-03-05T11:27:27.006Z,7.70
2023-03-05T11:29:54.969Z,7.60
2023-03-05T11:32:25.473Z,7.60
2023-03-05T11:34:54.471Z,7.60
2023-03-05T11:37:29.355Z,7.50
2023-03-05T11:40:20.441Z,7.50
2023-03-05T11:42:56.619Z,7.40
2023-03-05T11:45:25.991Z,7.20
2023-03-05T11:47:57.057Z,7.30
2023-03-05T11:50:26.975Z,7.50
2023-03-05T11:53:00.009Z,7.50
2023-03-05T11:55:31.028Z,7.70
2023-03-05T11:58:13.870Z,7.80
2023-03-05T12:00:45.639Z,7.90
2023-03-05T12:03:17.519Z,8.10
2023-03-05T12:05:48.797Z,8.90
2023-03-05T12:08:25.506Z,9.40
2023-03-05T12:10:53.833Z,8.30
2023-03-05T12:13:29.003Z,8.30
2023-03-05T12:16:12.992Z,8.80
2023-03-05T12:18:49.587Z,8.00
2023-03-05T12:21:26.027Z,7.80
2023-03-05T12:23:58.958Z,7.70
2023-03-05T12:26:56.068Z,7.60
2023-03-05T12:29:38.692Z,7.50
2023-03-05T12:32:28.755Z,7.40
2023-03-05T12:35:01.224Z,7.50
2023-03-05T12:38:24.343Z,7.60
2023-03-05T12:40:53.690Z,7.70
2023-03-05T12:43:32.421Z,7.70
2023-03-05T12:46:29.253Z,8.40
2023-03-05T12:48:57.154Z,7.70
2023-03-05T12:51:35.165Z,7.80
2023-03-05T12:54:23.432Z,8.00
2023-03-05T12:56:53.269Z,8.10
2023-03-05T12:59:23.470Z,8.90
2023-03-05T13:01:56.751Z,8.00
2023-03-05T13:04:27.956Z,8.00
2023-03-05T13:07:05.732Z,8.00
2023-03-05T13:09:36.353Z,7.90
2023-03-05T13:12:11.157Z,7.80
2023-03-05T13:14:42.418Z,7.60
2023-03-05T13:17:31.028Z,7.50
2023-03-05T13:20:00.234Z,7.20
2023-03-05T13:22:29.871Z,7.10
2023-03-05T13:25:20.501Z,7.00
2023-03-05T13:27:48.446Z,7.00
2023-03-05T13:30:24.792Z,7.00
2023-03-05T13:32:55.675Z,7.10
2023-03-05T13:35:23.825Z,7.10
2023-03-05T13:37:53.258Z,7.00
2023-03-05T13:40:24.061Z,7.00
2023-03-05T13:42:53.178Z,7.00
2023-03-05T13:45:27.741Z,7.10
2023-03-05T13:47:58.105Z,7.10
2023-03-05T13:50:29.530Z,7.10
2023-03-05T13:53:15.738Z,7.10
2023-03-05T13:55:44.010Z,7.10
2023-03-05T13:58:44.171Z,7.20
2023-03-05T14:01:16.048Z,7.30
2023-03-05T14:03:43.978Z,7.40
2023-03-05T14:06:13.849Z,7.50
2023-03-05T14:08:43.443Z,7.50
2023-03-05T14:11:17.524Z,7.70
2023-03-05T14:13:46.829Z,7.80
2023-03-05T14:16:16.788Z,7.80
2023-03-05T14:18:54.619Z,7.80
2023-03-05T14:21:22.661Z,7.80
2023-03-05T14:23:54.796Z,7.70
2023-03-05T14:26:29.731Z,7.60
2023-03-05T14:29:01.207Z,7.60
2023-03-05T14:31:30.864Z,7.50
2023-03-05T14:34:03.751Z,7.50
2023-03-05T14:36:33.064Z,7.40
2023-03-05T14:39:02.419Z,7.40
2023-03-05T14:41:37.359Z,7.40
2023-03-05T14:44:12.567Z,7.20
2023-03-05T14:46:41.048Z,7.20
2023-03-05T14:49:09.121Z,7.10
2023-03-05T14:51:41.822Z,7.10
2023-03-05T14:54:20.882Z,7.30
2023-03-05T14:56:49.700Z,7.60
2023-03-05T14:59:17.915Z,7.10
2023-03-05T15:01:46.076Z,7.20
2023-03-05T15:04:18.589Z,7.40
2023-03-05T15:06:50.824Z,7.20
2023-03-05T15:09:21.154Z,7.20
2023-03-05T15:11:49.707Z,7.30
2023-03-05T15:14:17.598Z,7.40
2023-03-05T15:16:47.747Z,7.40
2023-03-05T15:19:15.713Z,7.30
2023-03-05T15:21:43.583Z,7.20
2023-03-05T15:24:12.968Z,7.20
2023-03-05T15:26:42.182Z,7.40
2023-03-05T15:29:10.055Z,7.30
2023-03-05T15:31:40.353Z,7.00
2023-03-05T15:34:08.451Z,7.00
2023-03-05T15:36:36.317Z,6.90
2023-03-05T15:39:04.310Z,6.90
2023-03-05T15:41:32.173Z,6.80
2023-03-05T15:44:01.432Z,7.00
2023-03-05T15:46:29.366Z,6.70
2023-03-05T15:48:57.274Z,6.80
2023-03-05T15:51:25.150Z,6.70
2023-03-05T15:53:54.336Z,6.80
2023-03-05T15:56:22.262Z,7.10
2023-03-05T15:58:50.569Z,6.70
2023-03-05T16:01:20.887Z,6.60
2023-03-05T16:03:48.960Z,6.60
2023-03-05T16:06:20.278Z,6.50
2023-03-05T16:08:48.494Z,6.50
2023-03-05T16:11:16.662Z,6.50
2023-03-05T16:13:44.547Z,6.50
2023-03-05T16:16:13.689Z,6.40
2023-03-05T16:18:45.988Z,6.40
2023-03-05T16:21:14.782Z,6.20
2023-03-05T16:23:42.780Z,6.10
2023-03-05T16:26:10.964Z,6.10
2023-03-05T16:28:39.256Z,6.00
2023-03-05T16:31:07.254Z,6.40
2023-03-05T16:33:35.194Z,6.80
2023-03-05T16:36:23.028Z,5.90
2023-03-05T16:38:52.385Z,5.80
2023-03-05T16:41:23.273Z,6.00
2023-03-05T16:43:53.412Z,5.90
2023-03-05T16:46:21.729Z,5.70
2023-03-05T16:48:49.608Z,5.60
2023-03-05T16:51:19.309Z,6.40
2023-03-05T16:53:49.173Z,5.50
2023-03-05T16:56:17.708Z,5.50
2023-03-05T16:58:45.948Z,5.50
2023-03-05T17:01:16.185Z,5.50
2023-03-05T17:03:44.883Z,5.60
2023-03-05T17:06:15.284Z,5.30
2023-03-05T17:08:44.581Z,5.50
2023-03-05T17:11:14.745Z,5.00
2023-03-05T17:13:43.556Z,4.80
2023-03-05T17:16:13.930Z,4.70
2023-03-05T17:18:45.080Z,4.60
2023-03-05T17:21:14.016Z,4.60
2023-03-05T17:23:42.747Z,5.50
2023-03-05T17:26:14.423Z,5.50
2023-03-05T17:28:42.479Z,5.50
2023-03-05T17:31:10.837Z,4.30
2023-03-05T17:33:38.924Z,5.40
2023-03-05T17:36:08.075Z,4.20
2023-03-05T17:38:35.959Z,4.10
2023-03-05T17:41:03.846Z,4.00
2023-03-05T17:43:33.137Z,5.10
2023-03-05T17:46:01.837Z,3.90
2023-03-05T17:48:30.645Z,4.60
2023-03-05T17:50:59.712Z,3.80
2023-03-05T17:53:27.648Z,3.70
2023-03-05T17:55:55.512Z,3.70
2023-03-05T17:58:23.447Z,3.70
2023-03-05T18:00:52.903Z,3.70
2023-03-05T18:03:20.877Z,3.60
2023-03-05T18:05:48.761Z,5.10
2023-03-05T18:08:16.638Z,3.60
2023-03-05T18:10:44.584Z,3.60
2023-03-05T18:13:12.562Z,4.90
2023-03-05T18:15:47.243Z,3.60
2023-03-05T18:18:17.465Z,3.60
2023-03-05T18:20:45.817Z,4.60
2023-03-05T18:23:14.094Z,4.10
2023-03-05T18:25:41.989Z,3.60
2023-03-05T18:28:12.056Z,3.60
2023-03-05T18:30:41.465Z,3.60
2023-03-05T18:33:11.128Z,4.70
2023-03-05T18:35:40.535Z,4.50
2023-03-05T18:38:08.707Z,3.50
2023-03-05T18:40:37.182Z,3.60
2023-03-05T18:43:05.069Z,3.50
2023-03-05T18:45:34.218Z,3.50
2023-03-05T18:48:02.188Z,5.00
2023-03-05T18:50:30.988Z,3.50
2023-03-05T18:53:00.334Z,4.30
2023-03-05T18:55:30.180Z,3.60
2023-03-05T18:57:58.395Z,3.60
2023-03-05T19:00:28.387Z,4.30
2023-03-05T19:02:57.574Z,3.60
2023-03-05T19:05:27.060Z,4.60
2023-03-05T19:07:55.807Z,3.60
2023-03-05T19:10:25.418Z,3.60
2023-03-05T19:13:40.515Z,3.60
2023-03-05T19:16:10.656Z,3.60
2023-03-05T19:18:57.278Z,3.60
2023-03-05T19:21:25.360Z,3.70
2023-03-05T19:23:53.265Z,3.70
2023-03-05T19:26:22.527Z,4.70
2023-03-05T19:28:50.385Z,3.70
2023-03-05T19:32:15.061Z,4.90
2023-03-05T19:34:44.816Z,3.70
2023-03-05T19:37:13.287Z,3.60
2023-03-05T19:39:41.907Z,3.60
2023-03-05T19:42:11.179Z,3.70
2023-03-05T19:44:39.051Z,3.60
2023-03-05T19:47:07.296Z,3.70
2023-03-05T19:49:35.812Z,3.60
2023-03-05T19:52:04.233Z,3.60
2023-03-05T19:54:32.254Z,3.60
2023-03-05T19:57:00.189Z,3.60
2023-03-05T19:59:29.464Z,3.60
2023-03-05T20:01:58.106Z,3.60
2023-03-05T20:04:27.863Z,3.60
2023-03-05T20:06:55.829Z,3.60
2023-03-05T20:09:23.666Z,3.60
2023-03-05T20:11:51.605Z,3.50
2023-03-05T20:14:19.474Z,3.60
2023-03-05T20:16:48.697Z,3.50
2023-03-05T20:19:18.684Z,3.60
2023-03-05T20:21:46.762Z,3.60
2023-03-05T20:24:16.297Z,3.60
2023-03-05T20:26:45.610Z,4.00
2023-03-05T20:29:17.321Z,4.20
2023-03-05T20:31:46.335Z,3.50
2023-03-05T20:34:17.919Z,3.50
2023-03-05T20:36:46.490Z,3.50
2023-03-05T20:39:14.384Z,5.10
2023-03-05T20:41:42.715Z,4.40
2023-03-05T20:44:11.448Z,3.50
2023-03-05T20:47:44.594Z,4.20
2023-03-05T20:50:16.277Z,3.50
2023-03-05T20:52:44.220Z,3.70
2023-03-05T20:55:13.412Z,3.40
2023-03-05T20:57:42.011Z,3.40
2023-03-05T21:00:11.301Z,3.40
2023-03-05T21:02:39.845Z,3.40
2023-03-05T21:05:08.471Z,3.40
2023-03-05T21:07:37.705Z,3.40
2023-03-05T21:10:06.771Z,3.40
2023-03-05T21:12:34.868Z,3.30
2023-03-05T21:15:02.769Z,3.30
2023-03-05T21:17:30.611Z,3.30
2023-03-05T21:19:58.589Z,3.30
2023-03-05T21:22:26.456Z,3.30
2023-03-05T21:25:20.819Z,3.30
2023-03-05T21:27:54.871Z,3.20
2023-03-05T21:30:23.783Z,3.20
2023-03-05T21:32:51.663Z,3.20
2023-03-05T21:35:21.396Z,3.20
2023-03-05T21:37:49.411Z,3.20
2023-03-05T21:40:19.687Z,3.20
2023-03-05T21:42:48.314Z,3.20
2023-03-05T21:45:18.534Z,3.30
2023-03-05T21:47:46.687Z,3.30
2023-03-05T21:50:17.260Z,3.30
2023-03-05T21:52:45.147Z,3.30
2023-03-05T21:55:15.727Z,3.20
2023-03-05T21:57:45.184Z,3.30
2023-03-05T22:00:14.434Z,3.20
2023-03-05T22:02:43.200Z,3.20
2023-03-05T22:05:15.466Z,3.20
2023-03-05T22:07:44.411Z,3.20
2023-03-05T22:10:14.413Z,3.20
2023-03-05T22:13:12.354Z,3.10
2023-03-05T22:15:44.907Z,3.40
2023-03-05T22:18:13.626Z,3.20
2023-03-05T22:20:41.588Z,3.20
2023-03-05T22:23:10.027Z,3.10
2023-03-05T22:25:38.477Z,3.10
2023-03-05T22:28:09.218Z,3.10
2023-03-05T22:30:37.549Z,3.10
2023-03-05T22:33:05.621Z,3.20
2023-03-05T22:35:33.537Z,3.70
2023-03-05T22:38:01.416Z,3.10
2023-03-05T22:40:29.275Z,3.10
2023-03-05T22:42:57.128Z,3.80
2023-03-05T22:45:26.347Z,3.20
2023-03-05T22:47:54.209Z,3.20
2023-03-05T22:50:22.251Z,3.20
2023-03-05T22:52:50.085Z,3.20
2023-03-05T22:55:18.211Z,3.20
2023-03-05T22:57:46.330Z,3.20
2023-03-05T23:00:17.752Z,3.20
2023-03-05T23:02:47.013Z,3.20
2023-03-05T23:05:14.924Z,4.00
2023-03-05T23:07:44.062Z,3.20
2023-03-05T23:10:19.176Z,3.20
2023-03-05T23:12:50.094Z,3.20
2023-03-05T23:15:20.710Z,3.20
2023-03-05T23:17:49.952Z,3.20
2023-03-05T23:20:20.851Z,3.20
2023-03-05T23:22:52.653Z,3.30
2023-03-05T23:25:21.250Z,3.10
2023-03-05T23:27:49.687Z,3.10
2023-03-05T23:30:19.674Z,3.10
2023-03-05T23:32:52.656Z,3.60
2023-03-05T23:35:22.707Z,3.10
2023-03-05T23:37:50.829Z,3.10
2023-03-05T23:40:20.722Z,4.70
2023-03-05T23:42:48.667Z,3.00
2023-03-05T23:45:17.999Z,3.10
2023-03-05T23:47:48.078Z,4.20
2023-03-05T23:50:19.447Z,3.00
2023-03-05T23:52:48.088Z,3.00
2023-03-05T23:55:18.305Z,3.00
2023-03-05T23:57:46.740Z,3.00
